sensor_id;sensor_type;location;lat;lon;timestamp;P1;durP1;ratioP1;P2;durP2;ratioP2
54193;SDS011;40102;50.906;6.972;2023-07-24T00:01:56;2.28;;;1.48;;
54193;SDS011;40102;50.906;6.972;2023-07-24T00:04:22;2.85;;;1.48;;
54193;SDS011;40102;50.906;6.972;2023-07-24T00:06:47;2.95;;;1.50;;
54193;SDS011;40102;50.906;6.972;2023-07-24T00:09:12;2.33;;;1.70;;
54193;SDS011;40102;50.906;6.972;2023-07-24T00:11:38;2.50;;;1.77;;
54193;SDS011;40102;50.906;6.972;2023-07-24T00:14:03;1.83;;;1.42;;
54193;SDS011;40102;50.906;6.972;2023-07-24T00:16:28;1.48;;;1.30;;
54193;SDS011;40102;50.906;6.972;2023-07-24T00:18:54;1.70;;;1.50;;
54193;SDS011;40102;50.906;6.972;2023-07-24T00:21:19;3.53;;;2.05;;
54193;SDS011;40102;50.906;6.972;2023-07-24T00:23:47;3.00;;;1.98;;
54193;SDS011;40102;50.906;6.972;2023-07-24T00:26:13;1.70;;;1.58;;
54193;SDS011;40102;50.906;6.972;2023-07-24T00:28:38;3.33;;;1.40;;
54193;SDS011;40102;50.906;6.972;2023-07-24T00:31:03;2.05;;;1.65;;
54193;SDS011;40102;50.906;6.972;2023-07-24T00:33:29;2.63;;;1.60;;
54193;SDS011;40102;50.906;6.972;2023-07-24T00:35:55;2.38;;;1.75;;
54193;SDS011;40102;50.906;6.972;2023-07-24T00:38:22;3.25;;;1.80;;
54193;SDS011;40102;50.906;6.972;2023-07-24T00:40:48;2.45;;;1.45;;
54193;SDS011;40102;50.906;6.972;2023-07-24T00:43:13;2.10;;;1.50;;
54193;SDS011;40102;50.906;6.972;2023-07-24T00:45:38;2.60;;;1.63;;
54193;SDS011;40102;50.906;6.972;2023-07-24T00:48:04;2.08;;;1.77;;
54193;SDS011;40102;50.906;6.972;2023-07-24T00:50:29;3.20;;;1.55;;
54193;SDS011;40102;50.906;6.972;2023-07-24T00:52:55;3.65;;;1.80;;
54193;SDS011;40102;50.906;6.972;2023-07-24T00:55:21;3.10;;;1.80;;
54193;SDS011;40102;50.906;6.972;2023-07-24T00:57:47;2.03;;;1.50;;
54193;SDS011;40102;50.906;6.972;2023-07-24T01:00:12;3.70;;;1.52;;
54193;SDS011;40102;50.906;6.972;2023-07-24T01:02:38;2.20;;;1.50;;
54193;SDS011;40102;50.906;6.972;2023-07-24T01:05:04;2.58;;;1.60;;
54193;SDS011;40102;50.906;6.972;2023-07-24T01:07:30;4.03;;;1.70;;
54193;SDS011;40102;50.906;6.972;2023-07-24T01:09:56;1.67;;;1.40;;
54193;SDS011;40102;50.906;6.972;2023-07-24T01:12:27;3.70;;;1.60;;
54193;SDS011;40102;50.906;6.972;2023-07-24T01:14:59;2.25;;;1.75;;
54193;SDS011;40102;50.906;6.972;2023-07-24T01:17:32;2.85;;;1.45;;
54193;SDS011;40102;50.906;6.972;2023-07-24T01:20:03;2.10;;;1.42;;
54193;SDS011;40102;50.906;6.972;2023-07-24T01:27:42;3.72;;;1.70;;
54193;SDS011;40102;50.906;6.972;2023-07-24T01:30:08;2.22;;;1.48;;
54193;SDS011;40102;50.906;6.972;2023-07-24T01:32:34;2.80;;;1.60;;
54193;SDS011;40102;50.906;6.972;2023-07-24T01:35:03;3.40;;;1.60;;
54193;SDS011;40102;50.906;6.972;2023-07-24T01:37:29;2.65;;;1.80;;
54193;SDS011;40102;50.906;6.972;2023-07-24T01:39:56;2.25;;;1.67;;
54193;SDS011;40102;50.906;6.972;2023-07-24T01:42:22;2.33;;;1.90;;
54193;SDS011;40102;50.906;6.972;2023-07-24T01:44:52;3.22;;;1.95;;
54193;SDS011;40102;50.906;6.972;2023-07-24T01:47:18;2.42;;;1.83;;
54193;SDS011;40102;50.906;6.972;2023-07-24T01:49:44;2.40;;;1.80;;
54193;SDS011;40102;50.906;6.972;2023-07-24T01:52:09;3.22;;;2.00;;
54193;SDS011;40102;50.906;6.972;2023-07-24T01:54:35;5.10;;;2.03;;
54193;SDS011;40102;50.906;6.972;2023-07-24T01:57:00;3.67;;;2.33;;
54193;SDS011;40102;50.906;6.972;2023-07-24T01:59:25;4.05;;;1.98;;
54193;SDS011;40102;50.906;6.972;2023-07-24T02:01:51;3.22;;;2.00;;
54193;SDS011;40102;50.906;6.972;2023-07-24T02:04:16;3.20;;;1.83;;
54193;SDS011;40102;50.906;6.972;2023-07-24T02:06:41;2.97;;;2.05;;
54193;SDS011;40102;50.906;6.972;2023-07-24T02:09:07;3.25;;;2.00;;
54193;SDS011;40102;50.906;6.972;2023-07-24T02:11:32;2.88;;;2.00;;
54193;SDS011;40102;50.906;6.972;2023-07-24T02:13:57;5.80;;;2.38;;
54193;SDS011;40102;50.906;6.972;2023-07-24T02:16:24;3.45;;;2.35;;
54193;SDS011;40102;50.906;6.972;2023-07-24T02:18:52;5.55;;;2.35;;
54193;SDS011;40102;50.906;6.972;2023-07-24T02:21:17;3.13;;;1.90;;
54193;SDS011;40102;50.906;6.972;2023-07-24T02:23:43;3.85;;;1.88;;
54193;SDS011;40102;50.906;6.972;2023-07-24T02:26:08;3.58;;;2.20;;
54193;SDS011;40102;50.906;6.972;2023-07-24T02:28:33;3.15;;;2.00;;
54193;SDS011;40102;50.906;6.972;2023-07-24T02:30:59;5.57;;;2.10;;
54193;SDS011;40102;50.906;6.972;2023-07-24T02:33:25;7.60;;;2.70;;
54193;SDS011;40102;50.906;6.972;2023-07-24T02:35:51;3.80;;;1.95;;
54193;SDS011;40102;50.906;6.972;2023-07-24T02:38:17;4.35;;;2.28;;
54193;SDS011;40102;50.906;6.972;2023-07-24T02:40:43;4.78;;;2.20;;
54193;SDS011;40102;50.906;6.972;2023-07-24T02:43:09;2.72;;;2.08;;
54193;SDS011;40102;50.906;6.972;2023-07-24T02:45:36;3.03;;;2.00;;
54193;SDS011;40102;50.906;6.972;2023-07-24T02:48:02;3.50;;;2.17;;
54193;SDS011;40102;50.906;6.972;2023-07-24T02:50:28;5.47;;;2.28;;
54193;SDS011;40102;50.906;6.972;2023-07-24T02:52:53;3.65;;;2.15;;
54193;SDS011;40102;50.906;6.972;2023-07-24T02:55:19;3.10;;;2.22;;
54193;SDS011;40102;50.906;6.972;2023-07-24T02:57:44;7.75;;;2.33;;
54193;SDS011;40102;50.906;6.972;2023-07-24T03:00:10;5.07;;;2.30;;
54193;SDS011;40102;50.906;6.972;2023-07-24T03:02:35;3.55;;;2.53;;
54193;SDS011;40102;50.906;6.972;2023-07-24T03:05:01;3.35;;;2.33;;
54193;SDS011;40102;50.906;6.972;2023-07-24T03:07:27;3.92;;;2.58;;
54193;SDS011;40102;50.906;6.972;2023-07-24T03:09:52;4.78;;;2.30;;
54193;SDS011;40102;50.906;6.972;2023-07-24T03:12:17;4.90;;;2.20;;
54193;SDS011;40102;50.906;6.972;2023-07-24T03:14:43;4.50;;;2.40;;
54193;SDS011;40102;50.906;6.972;2023-07-24T03:17:08;3.80;;;2.38;;
54193;SDS011;40102;50.906;6.972;2023-07-24T03:19:34;4.13;;;2.40;;
54193;SDS011;40102;50.906;6.972;2023-07-24T03:21:59;4.15;;;2.28;;
54193;SDS011;40102;50.906;6.972;2023-07-24T03:24:24;4.97;;;2.38;;
54193;SDS011;40102;50.906;6.972;2023-07-24T03:26:52;3.88;;;2.30;;
54193;SDS011;40102;50.906;6.972;2023-07-24T03:29:18;3.47;;;2.35;;
54193;SDS011;40102;50.906;6.972;2023-07-24T03:31:43;6.03;;;2.63;;
54193;SDS011;40102;50.906;6.972;2023-07-24T03:34:11;4.72;;;2.42;;
54193;SDS011;40102;50.906;6.972;2023-07-24T03:36:37;3.85;;;2.42;;
54193;SDS011;40102;50.906;6.972;2023-07-24T03:39:06;3.90;;;2.50;;
54193;SDS011;40102;50.906;6.972;2023-07-24T03:41:31;6.03;;;3.33;;
54193;SDS011;40102;50.906;6.972;2023-07-24T03:43:57;4.60;;;2.10;;
54193;SDS011;40102;50.906;6.972;2023-07-24T03:46:22;5.38;;;2.28;;
54193;SDS011;40102;50.906;6.972;2023-07-24T03:48:47;4.32;;;2.65;;
54193;SDS011;40102;50.906;6.972;2023-07-24T03:51:14;4.07;;;2.25;;
54193;SDS011;40102;50.906;6.972;2023-07-24T03:53:40;4.60;;;2.47;;
54193;SDS011;40102;50.906;6.972;2023-07-24T03:56:05;4.35;;;2.53;;
54193;SDS011;40102;50.906;6.972;2023-07-24T03:58:31;3.83;;;2.40;;
54193;SDS011;40102;50.906;6.972;2023-07-24T04:00:56;3.33;;;2.03;;
54193;SDS011;40102;50.906;6.972;2023-07-24T04:03:21;4.75;;;2.35;;
54193;SDS011;40102;50.906;6.972;2023-07-24T04:05:47;4.97;;;2.47;;
54193;SDS011;40102;50.906;6.972;2023-07-24T04:08:15;3.38;;;2.05;;
54193;SDS011;40102;50.906;6.972;2023-07-24T04:10:40;6.32;;;2.40;;
54193;SDS011;40102;50.906;6.972;2023-07-24T04:13:06;4.80;;;2.22;;
54193;SDS011;40102;50.906;6.972;2023-07-24T04:15:31;3.30;;;2.20;;
54193;SDS011;40102;50.906;6.972;2023-07-24T04:17:57;3.90;;;2.13;;
54193;SDS011;40102;50.906;6.972;2023-07-24T04:20:22;5.65;;;2.30;;
54193;SDS011;40102;50.906;6.972;2023-07-24T04:22:47;6.57;;;2.28;;
54193;SDS011;40102;50.906;6.972;2023-07-24T04:25:13;3.47;;;2.30;;
54193;SDS011;40102;50.906;6.972;2023-07-24T04:27:38;3.58;;;2.05;;
54193;SDS011;40102;50.906;6.972;2023-07-24T04:30:04;3.72;;;2.17;;
54193;SDS011;40102;50.906;6.972;2023-07-24T04:32:29;3.53;;;2.10;;
54193;SDS011;40102;50.906;6.972;2023-07-24T04:34:55;5.10;;;2.53;;
54193;SDS011;40102;50.906;6.972;2023-07-24T04:37:20;3.13;;;2.25;;
54193;SDS011;40102;50.906;6.972;2023-07-24T04:39:46;6.07;;;2.60;;
54193;SDS011;40102;50.906;6.972;2023-07-24T04:42:11;5.07;;;2.45;;
54193;SDS011;40102;50.906;6.972;2023-07-24T04:44:36;5.63;;;2.40;;
54193;SDS011;40102;50.906;6.972;2023-07-24T04:47:02;7.07;;;2.85;;
54193;SDS011;40102;50.906;6.972;2023-07-24T04:49:30;3.20;;;2.30;;
54193;SDS011;40102;50.906;6.972;2023-07-24T04:54:25;4.63;;;2.50;;
54193;SDS011;40102;50.906;6.972;2023-07-24T04:56:51;6.13;;;2.50;;
54193;SDS011;40102;50.906;6.972;2023-07-24T04:59:16;3.95;;;2.60;;
54193;SDS011;40102;50.906;6.972;2023-07-24T05:01:41;3.75;;;2.10;;
54193;SDS011;40102;50.906;6.972;2023-07-24T05:04:07;6.03;;;2.65;;
54193;SDS011;40102;50.906;6.972;2023-07-24T05:06:33;6.32;;;2.60;;
54193;SDS011;40102;50.906;6.972;2023-07-24T05:09:00;5.38;;;2.60;;
54193;SDS011;40102;50.906;6.972;2023-07-24T05:11:25;5.15;;;2.70;;
54193;SDS011;40102;50.906;6.972;2023-07-24T05:13:51;3.47;;;2.45;;
54193;SDS011;40102;50.906;6.972;2023-07-24T05:16:16;3.95;;;2.40;;
54193;SDS011;40102;50.906;6.972;2023-07-24T05:18:41;5.10;;;2.63;;
54193;SDS011;40102;50.906;6.972;2023-07-24T05:21:07;4.15;;;2.45;;
54193;SDS011;40102;50.906;6.972;2023-07-24T05:23:32;5.60;;;2.33;;
54193;SDS011;40102;50.906;6.972;2023-07-24T05:25:58;3.97;;;2.60;;
54193;SDS011;40102;50.906;6.972;2023-07-24T05:28:25;4.07;;;2.30;;
54193;SDS011;40102;50.906;6.972;2023-07-24T05:30:51;5.03;;;2.67;;
54193;SDS011;40102;50.906;6.972;2023-07-24T05:33:17;6.55;;;3.17;;
54193;SDS011;40102;50.906;6.972;2023-07-24T05:35:42;5.50;;;2.70;;
54193;SDS011;40102;50.906;6.972;2023-07-24T05:38:08;5.53;;;2.78;;
54193;SDS011;40102;50.906;6.972;2023-07-24T05:40:33;5.35;;;2.47;;
54193;SDS011;40102;50.906;6.972;2023-07-24T05:42:59;6.57;;;2.45;;
54193;SDS011;40102;50.906;6.972;2023-07-24T05:45:24;4.40;;;2.60;;
54193;SDS011;40102;50.906;6.972;2023-07-24T05:47:50;5.20;;;2.58;;
54193;SDS011;40102;50.906;6.972;2023-07-24T05:50:15;4.38;;;2.80;;
54193;SDS011;40102;50.906;6.972;2023-07-24T05:52:40;4.97;;;2.78;;
54193;SDS011;40102;50.906;6.972;2023-07-24T05:55:06;3.65;;;2.40;;
54193;SDS011;40102;50.906;6.972;2023-07-24T05:57:32;4.07;;;2.58;;
54193;SDS011;40102;50.906;6.972;2023-07-24T05:59:57;6.95;;;3.28;;
54193;SDS011;40102;50.906;6.972;2023-07-24T06:02:22;4.43;;;2.60;;
54193;SDS011;40102;50.906;6.972;2023-07-24T06:04:51;4.57;;;2.45;;
54193;SDS011;40102;50.906;6.972;2023-07-24T06:07:16;5.50;;;2.67;;
54193;SDS011;40102;50.906;6.972;2023-07-24T06:09:41;4.13;;;2.33;;
54193;SDS011;40102;50.906;6.972;2023-07-24T06:12:07;7.82;;;3.00;;
54193;SDS011;40102;50.906;6.972;2023-07-24T06:14:33;6.25;;;2.88;;
54193;SDS011;40102;50.906;6.972;2023-07-24T06:16:59;4.25;;;2.42;;
54193;SDS011;40102;50.906;6.972;2023-07-24T06:19:24;5.45;;;2.65;;
54193;SDS011;40102;50.906;6.972;2023-07-24T06:21:49;6.38;;;2.60;;
54193;SDS011;40102;50.906;6.972;2023-07-24T06:24:15;6.07;;;3.10;;
54193;SDS011;40102;50.906;6.972;2023-07-24T06:26:40;3.40;;;2.47;;
54193;SDS011;40102;50.906;6.972;2023-07-24T06:29:06;6.13;;;2.88;;
54193;SDS011;40102;50.906;6.972;2023-07-24T06:31:31;6.47;;;2.70;;
54193;SDS011;40102;50.906;6.972;2023-07-24T06:33:57;3.75;;;2.53;;
54193;SDS011;40102;50.906;6.972;2023-07-24T06:36:22;5.38;;;2.80;;
54193;SDS011;40102;50.906;6.972;2023-07-24T06:38:47;3.95;;;2.67;;
54193;SDS011;40102;50.906;6.972;2023-07-24T06:41:16;4.20;;;2.78;;
54193;SDS011;40102;50.906;6.972;2023-07-24T06:43:42;4.60;;;2.72;;
54193;SDS011;40102;50.906;6.972;2023-07-24T06:46:07;5.32;;;2.95;;
54193;SDS011;40102;50.906;6.972;2023-07-24T06:48:32;4.45;;;2.60;;
54193;SDS011;40102;50.906;6.972;2023-07-24T06:50:58;4.38;;;2.60;;
54193;SDS011;40102;50.906;6.972;2023-07-24T06:53:23;4.43;;;2.70;;
54193;SDS011;40102;50.906;6.972;2023-07-24T06:55:49;4.82;;;2.42;;
54193;SDS011;40102;50.906;6.972;2023-07-24T06:58:14;6.63;;;2.70;;
54193;SDS011;40102;50.906;6.972;2023-07-24T07:00:39;4.53;;;2.80;;
54193;SDS011;40102;50.906;6.972;2023-07-24T07:03:05;3.92;;;2.50;;
54193;SDS011;40102;50.906;6.972;2023-07-24T07:05:31;4.45;;;2.45;;
54193;SDS011;40102;50.906;6.972;2023-07-24T07:07:57;3.92;;;2.47;;
54193;SDS011;40102;50.906;6.972;2023-07-24T07:10:22;5.72;;;2.60;;
54193;SDS011;40102;50.906;6.972;2023-07-24T07:12:48;6.85;;;2.47;;
54193;SDS011;40102;50.906;6.972;2023-07-24T07:15:13;4.32;;;2.40;;
54193;SDS011;40102;50.906;6.972;2023-07-24T07:17:39;5.15;;;2.63;;
54193;SDS011;40102;50.906;6.972;2023-07-24T07:20:04;5.05;;;2.58;;
54193;SDS011;40102;50.906;6.972;2023-07-24T07:22:31;6.53;;;2.63;;
54193;SDS011;40102;50.906;6.972;2023-07-24T07:24:56;3.60;;;2.40;;
54193;SDS011;40102;50.906;6.972;2023-07-24T07:27:21;4.18;;;2.60;;
54193;SDS011;40102;50.906;6.972;2023-07-24T07:29:47;5.25;;;2.40;;
54193;SDS011;40102;50.906;6.972;2023-07-24T07:32:12;4.90;;;2.40;;
54193;SDS011;40102;50.906;6.972;2023-07-24T07:34:37;5.25;;;2.53;;
54193;SDS011;40102;50.906;6.972;2023-07-24T07:37:04;3.22;;;2.53;;
54193;SDS011;40102;50.906;6.972;2023-07-24T07:39:30;5.13;;;2.42;;
54193;SDS011;40102;50.906;6.972;2023-07-24T07:41:56;3.53;;;2.22;;
54193;SDS011;40102;50.906;6.972;2023-07-24T07:44:21;3.80;;;2.30;;
54193;SDS011;40102;50.906;6.972;2023-07-24T07:46:47;4.18;;;2.20;;
54193;SDS011;40102;50.906;6.972;2023-07-24T07:49:15;2.70;;;2.20;;
54193;SDS011;40102;50.906;6.972;2023-07-24T07:51:40;4.72;;;2.75;;
54193;SDS011;40102;50.906;6.972;2023-07-24T07:54:08;4.57;;;2.45;;
54193;SDS011;40102;50.906;6.972;2023-07-24T07:56:34;4.85;;;2.40;;
54193;SDS011;40102;50.906;6.972;2023-07-24T07:58:59;4.82;;;2.00;;
54193;SDS011;40102;50.906;6.972;2023-07-24T08:01:24;4.32;;;2.58;;
54193;SDS011;40102;50.906;6.972;2023-07-24T08:03:50;4.15;;;2.40;;
54193;SDS011;40102;50.906;6.972;2023-07-24T08:06:15;2.65;;;2.00;;
54193;SDS011;40102;50.906;6.972;2023-07-24T08:08:40;4.05;;;2.10;;
54193;SDS011;40102;50.906;6.972;2023-07-24T08:11:06;2.83;;;1.90;;
54193;SDS011;40102;50.906;6.972;2023-07-24T08:13:32;6.25;;;2.53;;
54193;SDS011;40102;50.906;6.972;2023-07-24T08:15:58;3.67;;;2.10;;
54193;SDS011;40102;50.906;6.972;2023-07-24T08:18:24;3.33;;;1.98;;
54193;SDS011;40102;50.906;6.972;2023-07-24T08:20:50;7.20;;;2.50;;
54193;SDS011;40102;50.906;6.972;2023-07-24T08:23:16;3.00;;;2.10;;
54193;SDS011;40102;50.906;6.972;2023-07-24T08:25:50;4.10;;;2.10;;
54193;SDS011;40102;50.906;6.972;2023-07-24T08:28:19;3.80;;;2.08;;
54193;SDS011;40102;50.906;6.972;2023-07-24T08:30:45;3.22;;;2.30;;
54193;SDS011;40102;50.906;6.972;2023-07-24T08:33:12;3.55;;;2.00;;
54193;SDS011;40102;50.906;6.972;2023-07-24T08:35:37;3.50;;;2.22;;
54193;SDS011;40102;50.906;6.972;2023-07-24T08:38:03;5.22;;;2.15;;
54193;SDS011;40102;50.906;6.972;2023-07-24T08:40:28;3.00;;;2.13;;
54193;SDS011;40102;50.906;6.972;2023-07-24T08:42:54;3.25;;;2.10;;
54193;SDS011;40102;50.906;6.972;2023-07-24T08:48:42;4.50;;;2.33;;
54193;SDS011;40102;50.906;6.972;2023-07-24T08:51:08;3.88;;;2.40;;
54193;SDS011;40102;50.906;6.972;2023-07-24T08:53:41;4.60;;;2.00;;
54193;SDS011;40102;50.906;6.972;2023-07-24T08:56:08;3.65;;;2.50;;
54193;SDS011;40102;50.906;6.972;2023-07-24T08:58:35;4.22;;;2.40;;
54193;SDS011;40102;50.906;6.972;2023-07-24T09:01:01;4.72;;;2.38;;
54193;SDS011;40102;50.906;6.972;2023-07-24T09:03:28;3.47;;;2.35;;
54193;SDS011;40102;50.906;6.972;2023-07-24T09:05:54;8.85;;;2.50;;
54193;SDS011;40102;50.906;6.972;2023-07-24T09:08:32;6.95;;;2.80;;
54193;SDS011;40102;50.906;6.972;2023-07-24T09:10:59;4.22;;;2.38;;
54193;SDS011;40102;50.906;6.972;2023-07-24T09:13:25;3.20;;;2.22;;
54193;SDS011;40102;50.906;6.972;2023-07-24T09:15:51;4.85;;;2.20;;
54193;SDS011;40102;50.906;6.972;2023-07-24T09:18:17;3.67;;;2.08;;
54193;SDS011;40102;50.906;6.972;2023-07-24T09:20:43;2.63;;;1.80;;
54193;SDS011;40102;50.906;6.972;2023-07-24T09:23:09;3.17;;;1.92;;
54193;SDS011;40102;50.906;6.972;2023-07-24T09:25:37;3.20;;;2.22;;
54193;SDS011;40102;50.906;6.972;2023-07-24T09:28:13;4.72;;;2.40;;
54193;SDS011;40102;50.906;6.972;2023-07-24T09:30:41;3.53;;;1.90;;
54193;SDS011;40102;50.906;6.972;2023-07-24T09:33:15;2.50;;;1.70;;
54193;SDS011;40102;50.906;6.972;2023-07-24T09:35:41;6.18;;;2.13;;
54193;SDS011;40102;50.906;6.972;2023-07-24T09:38:07;2.72;;;1.70;;
54193;SDS011;40102;50.906;6.972;2023-07-24T09:40:37;3.70;;;1.70;;
54193;SDS011;40102;50.906;6.972;2023-07-24T09:43:18;2.05;;;1.60;;
54193;SDS011;40102;50.906;6.972;2023-07-24T09:45:43;2.30;;;1.80;;
54193;SDS011;40102;50.906;6.972;2023-07-24T09:48:10;2.15;;;1.67;;
54193;SDS011;40102;50.906;6.972;2023-07-24T09:50:38;3.20;;;1.98;;
54193;SDS011;40102;50.906;6.972;2023-07-24T09:53:04;3.67;;;1.90;;
54193;SDS011;40102;50.906;6.972;2023-07-24T09:55:34;2.90;;;2.00;;
54193;SDS011;40102;50.906;6.972;2023-07-24T09:58:05;4.65;;;1.83;;
54193;SDS011;40102;50.906;6.972;2023-07-24T10:00:32;2.80;;;1.88;;
54193;SDS011;40102;50.906;6.972;2023-07-24T10:02:57;2.92;;;1.80;;
54193;SDS011;40102;50.906;6.972;2023-07-24T10:05:24;3.33;;;2.05;;
54193;SDS011;40102;50.906;6.972;2023-07-24T10:07:50;2.75;;;1.83;;
54193;SDS011;40102;50.906;6.972;2023-07-24T10:10:16;6.38;;;2.00;;
54193;SDS011;40102;50.906;6.972;2023-07-24T10:12:42;3.15;;;1.90;;
54193;SDS011;40102;50.906;6.972;2023-07-24T10:15:08;2.67;;;1.77;;
54193;SDS011;40102;50.906;6.972;2023-07-24T10:17:39;2.55;;;1.80;;
54193;SDS011;40102;50.906;6.972;2023-07-24T10:20:07;5.50;;;1.95;;
54193;SDS011;40102;50.906;6.972;2023-07-24T10:22:34;3.05;;;1.80;;
54193;SDS011;40102;50.906;6.972;2023-07-24T10:25:02;2.75;;;1.70;;
54193;SDS011;40102;50.906;6.972;2023-07-24T10:27:28;3.63;;;1.80;;
54193;SDS011;40102;50.906;6.972;2023-07-24T10:30:03;2.50;;;1.77;;
54193;SDS011;40102;50.906;6.972;2023-07-24T10:32:33;3.30;;;1.90;;
54193;SDS011;40102;50.906;6.972;2023-07-24T10:34:59;3.13;;;1.60;;
54193;SDS011;40102;50.906;6.972;2023-07-24T10:37:35;4.72;;;1.75;;
54193;SDS011;40102;50.906;6.972;2023-07-24T10:42:28;3.25;;;2.10;;
54193;SDS011;40102;50.906;6.972;2023-07-24T10:45:37;2.60;;;1.75;;
54193;SDS011;40102;50.906;6.972;2023-07-24T10:47:47;3.35;;;1.80;;
54193;SDS011;40102;50.906;6.972;2023-07-24T10:50:12;2.67;;;1.83;;
54193;SDS011;40102;50.906;6.972;2023-07-24T10:52:38;3.83;;;1.85;;
54193;SDS011;40102;50.906;6.972;2023-07-24T10:55:03;2.50;;;2.03;;
54193;SDS011;40102;50.906;6.972;2023-07-24T10:57:29;2.85;;;2.03;;
54193;SDS011;40102;50.906;6.972;2023-07-24T10:59:55;2.50;;;1.77;;
54193;SDS011;40102;50.906;6.972;2023-07-24T11:02:21;3.78;;;1.95;;
54193;SDS011;40102;50.906;6.972;2023-07-24T11:04:46;2.42;;;1.90;;
54193;SDS011;40102;50.906;6.972;2023-07-24T11:07:12;2.50;;;1.80;;
54193;SDS011;40102;50.906;6.972;2023-07-24T11:09:39;2.58;;;1.98;;
54193;SDS011;40102;50.906;6.972;2023-07-24T11:14:47;2.53;;;1.95;;
54193;SDS011;40102;50.906;6.972;2023-07-24T11:17:19;3.63;;;2.20;;
54193;SDS011;40102;50.906;6.972;2023-07-24T11:19:45;4.38;;;1.95;;
54193;SDS011;40102;50.906;6.972;2023-07-24T11:22:10;2.67;;;1.88;;
54193;SDS011;40102;50.906;6.972;2023-07-24T11:24:43;4.60;;;1.90;;
54193;SDS011;40102;50.906;6.972;2023-07-24T11:27:14;5.30;;;2.05;;
54193;SDS011;40102;50.906;6.972;2023-07-24T11:32:13;2.83;;;1.80;;
54193;SDS011;40102;50.906;6.972;2023-07-24T11:34:42;2.78;;;1.60;;
54193;SDS011;40102;50.906;6.972;2023-07-24T11:37:08;3.65;;;2.00;;
54193;SDS011;40102;50.906;6.972;2023-07-24T11:39:33;3.45;;;1.95;;
54193;SDS011;40102;50.906;6.972;2023-07-24T11:41:59;3.25;;;1.77;;
54193;SDS011;40102;50.906;6.972;2023-07-24T11:44:29;3.92;;;1.95;;
54193;SDS011;40102;50.906;6.972;2023-07-24T11:47:01;1.77;;;1.20;;
54193;SDS011;40102;50.906;6.972;2023-07-24T11:49:28;1.10;;;0.80;;
54193;SDS011;40102;50.906;6.972;2023-07-24T11:52:04;2.72;;;0.95;;
54193;SDS011;40102;50.906;6.972;2023-07-24T11:54:33;2.50;;;1.10;;
54193;SDS011;40102;50.906;6.972;2023-07-24T11:56:59;3.75;;;1.10;;
54193;SDS011;40102;50.906;6.972;2023-07-24T11:59:36;2.47;;;0.88;;
54193;SDS011;40102;50.906;6.972;2023-07-24T12:02:04;1.80;;;1.00;;
54193;SDS011;40102;50.906;6.972;2023-07-24T12:04:30;3.92;;;1.00;;
54193;SDS011;40102;50.906;6.972;2023-07-24T12:06:56;2.17;;;1.13;;
54193;SDS011;40102;50.906;6.972;2023-07-24T12:09:22;4.07;;;1.30;;
54193;SDS011;40102;50.906;6.972;2023-07-24T12:11:47;1.85;;;0.93;;
54193;SDS011;40102;50.906;6.972;2023-07-24T12:14:14;1.70;;;1.00;;
54193;SDS011;40102;50.906;6.972;2023-07-24T12:16:39;1.42;;;0.90;;
54193;SDS011;40102;50.906;6.972;2023-07-24T12:19:05;2.28;;;0.90;;
54193;SDS011;40102;50.906;6.972;2023-07-24T12:21:30;1.70;;;0.88;;
54193;SDS011;40102;50.906;6.972;2023-07-24T12:23:59;2.35;;;0.90;;
54193;SDS011;40102;50.906;6.972;2023-07-24T12:26:24;3.80;;;1.10;;
54193;SDS011;40102;50.906;6.972;2023-07-24T12:28:52;1.77;;;1.10;;
54193;SDS011;40102;50.906;6.972;2023-07-24T12:31:18;2.03;;;1.20;;
54193;SDS011;40102;50.906;6.972;2023-07-24T12:33:43;4.57;;;1.60;;
54193;SDS011;40102;50.906;6.972;2023-07-24T12:36:08;1.25;;;1.00;;
54193;SDS011;40102;50.906;6.972;2023-07-24T12:38:34;4.13;;;1.20;;
54193;SDS011;40102;50.906;6.972;2023-07-24T12:40:59;2.70;;;1.10;;
54193;SDS011;40102;50.906;6.972;2023-07-24T12:43:24;2.00;;;1.20;;
54193;SDS011;40102;50.906;6.972;2023-07-24T12:45:50;4.93;;;1.20;;
54193;SDS011;40102;50.906;6.972;2023-07-24T12:48:15;2.97;;;1.40;;
54193;SDS011;40102;50.906;6.972;2023-07-24T12:50:42;2.63;;;1.33;;
54193;SDS011;40102;50.906;6.972;2023-07-24T12:53:08;2.33;;;1.25;;
54193;SDS011;40102;50.906;6.972;2023-07-24T12:55:33;2.70;;;1.27;;
54193;SDS011;40102;50.906;6.972;2023-07-24T12:57:58;2.42;;;1.42;;
54193;SDS011;40102;50.906;6.972;2023-07-24T13:00:24;3.03;;;1.52;;
54193;SDS011;40102;50.906;6.972;2023-07-24T13:02:49;2.13;;;1.20;;
54193;SDS011;40102;50.906;6.972;2023-07-24T13:05:15;1.65;;;1.10;;
54193;SDS011;40102;50.906;6.972;2023-07-24T13:07:40;3.08;;;1.42;;
54193;SDS011;40102;50.906;6.972;2023-07-24T13:10:06;2.50;;;1.30;;
54193;SDS011;40102;50.906;6.972;2023-07-24T13:12:31;1.85;;;1.50;;
54193;SDS011;40102;50.906;6.972;2023-07-24T13:14:57;3.25;;;1.77;;
54193;SDS011;40102;50.906;6.972;2023-07-24T13:17:22;4.03;;;1.77;;
54193;SDS011;40102;50.906;6.972;2023-07-24T13:19:48;3.67;;;1.92;;
54193;SDS011;40102;50.906;6.972;2023-07-24T13:22:13;1.95;;;1.58;;
54193;SDS011;40102;50.906;6.972;2023-07-24T13:24:39;2.30;;;1.40;;
54193;SDS011;40102;50.906;6.972;2023-07-24T13:27:04;2.22;;;1.40;;
54193;SDS011;40102;50.906;6.972;2023-07-24T13:29:30;2.38;;;1.60;;
54193;SDS011;40102;50.906;6.972;2023-07-24T13:31:56;2.95;;;1.40;;
54193;SDS011;40102;50.906;6.972;2023-07-24T13:34:23;2.17;;;1.25;;
54193;SDS011;40102;50.906;6.972;2023-07-24T13:36:49;2.05;;;1.20;;
54193;SDS011;40102;50.906;6.972;2023-07-24T13:39:14;2.20;;;1.30;;
54193;SDS011;40102;50.906;6.972;2023-07-24T13:41:40;1.70;;;1.20;;
54193;SDS011;40102;50.906;6.972;2023-07-24T13:44:05;2.28;;;1.35;;
54193;SDS011;40102;50.906;6.972;2023-07-24T13:46:30;2.85;;;1.50;;
54193;SDS011;40102;50.906;6.972;2023-07-24T13:48:56;1.48;;;1.10;;
54193;SDS011;40102;50.906;6.972;2023-07-24T13:51:21;1.65;;;1.27;;
54193;SDS011;40102;50.906;6.972;2023-07-24T13:53:47;2.20;;;1.30;;
54193;SDS011;40102;50.906;6.972;2023-07-24T13:56:14;2.30;;;1.48;;
54193;SDS011;40102;50.906;6.972;2023-07-24T13:58:39;2.45;;;1.58;;
54193;SDS011;40102;50.906;6.972;2023-07-24T14:01:05;1.88;;;1.33;;
54193;SDS011;40102;50.906;6.972;2023-07-24T14:03:32;2.13;;;1.20;;
54193;SDS011;40102;50.906;6.972;2023-07-24T14:05:58;1.45;;;1.02;;
54193;SDS011;40102;50.906;6.972;2023-07-24T14:08:23;3.38;;;1.30;;
54193;SDS011;40102;50.906;6.972;2023-07-24T14:10:49;4.00;;;1.58;;
54193;SDS011;40102;50.906;6.972;2023-07-24T14:13:14;2.42;;;1.33;;
54193;SDS011;40102;50.906;6.972;2023-07-24T14:15:39;3.00;;;1.40;;
54193;SDS011;40102;50.906;6.972;2023-07-24T14:18:05;2.15;;;1.45;;
54193;SDS011;40102;50.906;6.972;2023-07-24T14:20:30;4.15;;;1.83;;
54193;SDS011;40102;50.906;6.972;2023-07-24T14:22:55;2.72;;;1.35;;
54193;SDS011;40102;50.906;6.972;2023-07-24T14:25:21;5.85;;;1.20;;
54193;SDS011;40102;50.906;6.972;2023-07-24T14:27:46;1.90;;;1.08;;
54193;SDS011;40102;50.906;6.972;2023-07-24T14:30:14;0.75;;;0.73;;
54193;SDS011;40102;50.906;6.972;2023-07-24T14:32:40;1.85;;;0.82;;
54193;SDS011;40102;50.906;6.972;2023-07-24T14:35:05;1.55;;;0.80;;
54193;SDS011;40102;50.906;6.972;2023-07-24T14:37:31;0.63;;;0.60;;
54193;SDS011;40102;50.906;6.972;2023-07-24T14:39:56;1.98;;;0.70;;
54193;SDS011;40102;50.906;6.972;2023-07-24T14:42:22;1.58;;;0.77;;
54193;SDS011;40102;50.906;6.972;2023-07-24T14:44:47;1.55;;;0.90;;
54193;SDS011;40102;50.906;6.972;2023-07-24T14:47:12;2.33;;;1.00;;
54193;SDS011;40102;50.906;6.972;2023-07-24T14:49:38;0.65;;;0.60;;
54193;SDS011;40102;50.906;6.972;2023-07-24T14:52:04;1.38;;;0.75;;
54193;SDS011;40102;50.906;6.972;2023-07-24T14:54:32;2.15;;;0.90;;
54193;SDS011;40102;50.906;6.972;2023-07-24T14:56:58;2.58;;;0.80;;
54193;SDS011;40102;50.906;6.972;2023-07-24T14:59:24;0.98;;;0.70;;
54193;SDS011;40102;50.906;6.972;2023-07-24T15:01:49;1.38;;;0.90;;